sensor_id;sensor_type;location;lat;lon;timestamp;temperature;humidity
13880;DHT22;7010;48.200;16.332;2022-09-09T00:00:12;16.70;99.90
13880;DHT22;7010;48.200;16.332;2022-09-09T00:02:47;16.70;99.90
13880;DHT22;7010;48.200;16.332;2022-09-09T00:05:25;16.60;99.90
13880;DHT22;7010;48.200;16.332;2022-09-09T00:07:59;16.60;99.90
13880;DHT22;7010;48.200;16.332;2022-09-09T00:10:33;16.60;99.90
13880;DHT22;7010;48.200;16.332;2022-09-09T00:13:10;16.60;99.90
13880;DHT22;7010;48.200;16.332;2022-09-09T00:15:45;16.60;99.90
13880;DHT22;7010;48.200;16.332;2022-09-09T00:18:23;16.60;99.90
13880;DHT22;7010;48.200;16.332;2022-09-09T00:20:59;16.60;99.90
13880;DHT22;7010;48.200;16.332;2022-09-09T00:23:31;16.60;99.90
13880;DHT22;7010;48.200;16.332;2022-09-09T00:26:04;16.60;99.90
13880;DHT22;7010;48.200;16.332;2022-09-09T00:28:41;16.50;99.90
13880;DHT22;7010;48.200;16.332;2022-09-09T00:31:16;16.50;99.90
13880;DHT22;7010;48.200;16.332;2022-09-09T00:33:47;16.40;99.90
13880;DHT22;7010;48.200;16.332;2022-09-09T00:36:21;16.40;99.90
13880;DHT22;7010;48.200;16.332;2022-09-09T00:38:56;16.50;99.90
13880;DHT22;7010;48.200;16.332;2022-09-09T00:41:31;16.50;99.90
13880;DHT22;7010;48.200;16.332;2022-09-09T00:44:25;16.50;99.90
13880;DHT22;7010;48.200;16.332;2022-09-09T00:47:04;16.60;99.90
13880;DHT22;7010;48.200;16.332;2022-09-09T00:49:43;16.70;99.90
13880;DHT22;7010;48.200;16.332;2022-09-09T00:52:32;16.70;99.90
13880;DHT22;7010;48.200;16.332;2022-09-09T00:55:10;16.70;99.90
13880;DHT22;7010;48.200;16.332;2022-09-09T00:57:40;16.70;99.90
13880;DHT22;7010;48.200;16.332;2022-09-09T01:00:21;16.70;99.90
13880;DHT22;7010;48.200;16.332;2022-09-09T01:03:06;16.70;99.90
13880;DHT22;7010;48.200;16.332;2022-09-09T01:05:41;16.60;99.90
13880;DHT22;7010;48.200;16.332;2022-09-09T01:08:28;16.60;99.90
13880;DHT22;7010;48.200;16.332;2022-09-09T01:11:00;16.60;99.90
13880;DHT22;7010;48.200;16.332;2022-09-09T01:13:30;16.60;99.90
13880;DHT22;7010;48.200;16.332;2022-09-09T01:16:02;16.50;99.90
13880;DHT22;7010;48.200;16.332;2022-09-09T01:18:34;16.50;99.90
13880;DHT22;7010;48.200;16.332;2022-09-09T01:21:12;16.50;99.90
13880;DHT22;7010;48.200;16.332;2022-09-09T01:23:58;16.50;99.90
13880;DHT22;7010;48.200;16.332;2022-09-09T01:26:34;16.50;99.90
13880;DHT22;7010;48.200;16.332;2022-09-09T01:29:07;16.50;99.90
13880;DHT22;7010;48.200;16.332;2022-09-09T01:31:38;16.50;99.90
13880;DHT22;7010;48.200;16.332;2022-09-09T01:34:11;16.50;99.90
13880;DHT22;7010;48.200;16.332;2022-09-09T01:36:44;16.50;99.90
13880;DHT22;7010;48.200;16.332;2022-09-09T01:39:12;16.40;99.90
13880;DHT22;7010;48.200;16.332;2022-09-09T01:41:43;16.40;99.90
13880;DHT22;7010;48.200;16.332;2022-09-09T01:44:11;16.40;99.90
13880;DHT22;7010;48.200;16.332;2022-09-09T01:46:40;16.40;99.90
13880;DHT22;7010;48.200;16.332;2022-09-09T01:49:08;16.30;99.90
13880;DHT22;7010;48.200;16.332;2022-09-09T01:51:38;16.30;99.90
13880;DHT22;7010;48.200;16.332;2022-09-09T01:54:08;16.30;99.90
13880;DHT22;7010;48.200;16.332;2022-09-09T01:56:47;16.30;99.90
13880;DHT22;7010;48.200;16.332;2022-09-09T01:59:27;16.30;99.90
13880;DHT22;7010;48.200;16.332;2022-09-09T02:02:09;16.30;99.90
13880;DHT22;7010;48.200;16.332;2022-09-09T02:04:40;16.30;99.90
13880;DHT22;7010;48.200;16.332;2022-09-09T02:07:19;16.30;99.90
13880;DHT22;7010;48.200;16.332;2022-09-09T02:09:58;16.30;99.90
13880;DHT22;7010;48.200;16.332;2022-09-09T02:12:30;16.30;99.90
13880;DHT22;7010;48.200;16.332;2022-09-09T02:15:04;16.30;99.90
13880;DHT22;7010;48.200;16.332;2022-09-09T02:17:36;16.20;99.90
13880;DHT22;7010;48.200;16.332;2022-09-09T02:20:07;16.20;99.90
13880;DHT22;7010;48.200;16.332;2022-09-09T02:22:39;16.20;99.90
13880;DHT22;7010;48.200;16.332;2022-09-09T02:25:10;16.20;99.90
13880;DHT22;7010;48.200;16.332;2022-09-09T02:27:44;16.10;99.90
13880;DHT22;7010;48.200;16.332;2022-09-09T02:30:13;16.00;99.90
13880;DHT22;7010;48.200;16.332;2022-09-09T02:32:43;16.00;99.90
13880;DHT22;7010;48.200;16.332;2022-09-09T02:35:15;15.90;99.90
13880;DHT22;7010;48.200;16.332;2022-09-09T02:37:45;15.90;99.90
13880;DHT22;7010;48.200;16.332;2022-09-09T02:40:14;15.90;99.90
13880;DHT22;7010;48.200;16.332;2022-09-09T02:42:46;15.90;99.90
13880;DHT22;7010;48.200;16.332;2022-09-09T02:45:17;15.90;99.90
13880;DHT22;7010;48.200;16.332;2022-09-09T02:47:51;15.90;99.90
13880;DHT22;7010;48.200;16.332;2022-09-09T02:50:27;15.90;99.90
13880;DHT22;7010;48.200;16.332;2022-09-09T02:53:05;15.90;99.90
13880;DHT22;7010;48.200;16.332;2022-09-09T02:55:42;15.90;99.90
13880;DHT22;7010;48.200;16.332;2022-09-09T02:58:17;15.90;99.90
13880;DHT22;7010;48.200;16.332;2022-09-09T03:00:48;15.80;99.90
13880;DHT22;7010;48.200;16.332;2022-09-09T03:03:17;15.80;99.90
13880;DHT22;7010;48.200;16.332;2022-09-09T03:05:46;15.80;99.90
13880;DHT22;7010;48.200;16.332;2022-09-09T03:08:15;15.80;99.90
13880;DHT22;7010;48.200;16.332;2022-09-09T03:10:43;15.70;99.90
13880;DHT22;7010;48.200;16.332;2022-09-09T03:13:12;15.70;99.90
13880;DHT22;7010;48.200;16.332;2022-09-09T03:15:43;15.60;99.90
13880;DHT22;7010;48.200;16.332;2022-09-09T03:18:11;15.60;99.90
13880;DHT22;7010;48.200;16.332;2022-09-09T03:20:40;15.50;99.90
13880;DHT22;7010;48.200;16.332;2022-09-09T03:23:09;15.50;99.90
13880;DHT22;7010;48.200;16.332;2022-09-09T03:25:46;15.50;99.90
13880;DHT22;7010;48.200;16.332;2022-09-09T03:28:15;15.60;99.90
13880;DHT22;7010;48.200;16.332;2022-09-09T03:30:44;15.50;99.90
13880;DHT22;7010;48.200;16.332;2022-09-09T03:33:13;15.50;99.90
13880;DHT22;7010;48.200;16.332;2022-09-09T03:35:45;15.50;99.90
13880;DHT22;7010;48.200;16.332;2022-09-09T03:38:15;15.60;99.90
13880;DHT22;7010;48.200;16.332;2022-09-09T03:40:49;15.60;99.90
13880;DHT22;7010;48.200;16.332;2022-09-09T03:43:17;15.60;99.90
13880;DHT22;7010;48.200;16.332;2022-09-09T03:45:48;15.60;99.90
13880;DHT22;7010;48.200;16.332;2022-09-09T03:48:17;15.50;99.90
13880;DHT22;7010;48.200;16.332;2022-09-09T03:50:46;15.50;99.90
13880;DHT22;7010;48.200;16.332;2022-09-09T03:53:15;15.60;99.90
13880;DHT22;7010;48.200;16.332;2022-09-09T03:55:44;15.60;99.90
13880;DHT22;7010;48.200;16.332;2022-09-09T03:58:12;15.60;99.90
13880;DHT22;7010;48.200;16.332;2022-09-09T04:00:41;15.60;99.90
13880;DHT22;7010;48.200;16.332;2022-09-09T04:03:13;15.60;99.90
13880;DHT22;7010;48.200;16.332;2022-09-09T04:05:42;15.60;99.90
13880;DHT22;7010;48.200;16.332;2022-09-09T04:08:10;15.60;99.90
13880;DHT22;7010;48.200;16.332;2022-09-09T04:10:39;15.60;99.90
13880;DHT22;7010;48.200;16.332;2022-09-09T04:13:08;15.60;99.90
13880;DHT22;7010;48.200;16.332;2022-09-09T04:15:36;15.50;99.90
13880;DHT22;7010;48.200;16.332;2022-09-09T04:18:04;15.60;99.90
13880;DHT22;7010;48.200;16.332;2022-09-09T04:20:34;15.50;99.90
13880;DHT22;7010;48.200;16.332;2022-09-09T04:23:02;15.50;99.90
13880;DHT22;7010;48.200;16.332;2022-09-09T04:25:31;15.40;99.90
13880;DHT22;7010;48.200;16.332;2022-09-09T04:28:00;15.40;99.90
13880;DHT22;7010;48.200;16.332;2022-09-09T04:30:29;15.40;99.90
13880;DHT22;7010;48.200;16.332;2022-09-09T04:32:58;15.40;99.90
13880;DHT22;7010;48.200;16.332;2022-09-09T04:35:26;15.40;99.90
13880;DHT22;7010;48.200;16.332;2022-09-09T04:37:55;15.30;99.90
13880;DHT22;7010;48.200;16.332;2022-09-09T04:40:24;15.30;99.90
13880;DHT22;7010;48.200;16.332;2022-09-09T04:42:52;15.30;99.90
13880;DHT22;7010;48.200;16.332;2022-09-09T04:45:20;15.40;99.90
13880;DHT22;7010;48.200;16.332;2022-09-09T04:47:48;15.30;99.90
13880;DHT22;7010;48.200;16.332;2022-09-09T04:50:16;15.30;99.90
13880;DHT22;7010;48.200;16.332;2022-09-09T04:52:45;15.30;99.90
13880;DHT22;7010;48.200;16.332;2022-09-09T04:55:15;15.30;99.90
13880;DHT22;7010;48.200;16.332;2022-09-09T04:57:43;15.30;99.90
13880;DHT22;7010;48.200;16.332;2022-09-09T05:00:12;15.20;99.90
13880;DHT22;7010;48.200;16.332;2022-09-09T05:02:40;15.20;99.90
13880;DHT22;7010;48.200;16.332;2022-09-09T05:05:09;15.20;99.90
13880;DHT22;7010;48.200;16.332;2022-09-09T05:07:38;15.20;99.90
13880;DHT22;7010;48.200;16.332;2022-09-09T05:10:07;15.20;99.90
13880;DHT22;7010;48.200;16.332;2022-09-09T05:12:38;15.20;99.90
13880;DHT22;7010;48.200;16.332;2022-09-09T05:15:07;15.20;99.90
13880;DHT22;7010;48.200;16.332;2022-09-09T05:17:36;15.20;99.90
13880;DHT22;7010;48.200;16.332;2022-09-09T05:20:05;15.20;99.90
13880;DHT22;7010;48.200;16.332;2022-09-09T05:22:37;15.20;99.90
13880;DHT22;7010;48.200;16.332;2022-09-09T05:25:06;15.20;99.90
13880;DHT22;7010;48.200;16.332;2022-09-09T05:27:35;15.20;99.90
13880;DHT22;7010;48.200;16.332;2022-09-09T05:30:06;15.20;99.90
13880;DHT22;7010;48.200;16.332;2022-09-09T05:32:35;15.20;99.90
13880;DHT22;7010;48.200;16.332;2022-09-09T05:35:04;15.30;99.90
13880;DHT22;7010;48.200;16.332;2022-09-09T05:37:32;15.30;99.90
13880;DHT22;7010;48.200;16.332;2022-09-09T05:40:00;15.30;99.90
13880;DHT22;7010;48.200;16.332;2022-09-09T05:42:30;15.40;99.90
13880;DHT22;7010;48.200;16.332;2022-09-09T05:44:59;15.40;99.90
13880;DHT22;7010;48.200;16.332;2022-09-09T05:47:28;15.40;99.90
13880;DHT22;7010;48.200;16.332;2022-09-09T05:49:57;15.50;99.90
13880;DHT22;7010;48.200;16.332;2022-09-09T05:52:25;15.60;99.90
13880;DHT22;7010;48.200;16.332;2022-09-09T05:54:54;15.70;99.90
13880;DHT22;7010;48.200;16.332;2022-09-09T05:57:23;15.70;99.90
13880;DHT22;7010;48.200;16.332;2022-09-09T05:59:51;15.70;99.90
13880;DHT22;7010;48.200;16.332;2022-09-09T06:02:20;15.70;99.90
13880;DHT22;7010;48.200;16.332;2022-09-09T06:04:50;15.60;99.90
13880;DHT22;7010;48.200;16.332;2022-09-09T06:07:18;15.60;99.90
13880;DHT22;7010;48.200;16.332;2022-09-09T06:09:46;15.60;99.90
13880;DHT22;7010;48.200;16.332;2022-09-09T06:12:15;15.60;99.90
13880;DHT22;7010;48.200;16.332;2022-09-09T06:14:43;15.70;99.90
13880;DHT22;7010;48.200;16.332;2022-09-09T06:17:12;15.70;99.90
13880;DHT22;7010;48.200;16.332;2022-09-09T06:19:40;15.80;99.90
13880;DHT22;7010;48.200;16.332;2022-09-09T06:22:10;15.90;99.90
13880;DHT22;7010;48.200;16.332;2022-09-09T06:24:38;15.90;99.90
13880;DHT22;7010;48.200;16.332;2022-09-09T06:27:07;16.00;99.90
13880;DHT22;7010;48.200;16.332;2022-09-09T06:29:35;16.10;99.90
13880;DHT22;7010;48.200;16.332;2022-09-09T06:32:03;16.20;99.90
13880;DHT22;7010;48.200;16.332;2022-09-09T06:34:31;16.30;99.90
13880;DHT22;7010;48.200;16.332;2022-09-09T06:37:00;16.30;99.90
13880;DHT22;7010;48.200;16.332;2022-09-09T06:39:29;16.40;99.90
13880;DHT22;7010;48.200;16.332;2022-09-09T06:41:58;16.60;99.90
13880;DHT22;7010;48.200;16.332;2022-09-09T06:44:26;16.70;99.90
13880;DHT22;7010;48.200;16.332;2022-09-09T06:47:00;16.90;99.90
13880;DHT22;7010;48.200;16.332;2022-09-09T06:49:29;17.10;99.90
13880;DHT22;7010;48.200;16.332;2022-09-09T06:51:57;17.30;99.90
13880;DHT22;7010;48.200;16.332;2022-09-09T06:54:25;17.40;99.90
13880;DHT22;7010;48.200;16.332;2022-09-09T06:56:55;17.50;99.90
13880;DHT22;7010;48.200;16.332;2022-09-09T06:59:23;17.60;99.90
13880;DHT22;7010;48.200;16.332;2022-09-09T07:01:51;17.70;99.90
13880;DHT22;7010;48.200;16.332;2022-09-09T07:04:22;17.90;99.90
13880;DHT22;7010;48.200;16.332;2022-09-09T07:06:50;18.00;99.90
13880;DHT22;7010;48.200;16.332;2022-09-09T07:09:20;18.20;99.90
13880;DHT22;7010;48.200;16.332;2022-09-09T07:11:49;18.40;99.90
13880;DHT22;7010;48.200;16.332;2022-09-09T07:14:21;18.50;99.90
13880;DHT22;7010;48.200;16.332;2022-09-09T07:16:49;18.60;99.90
13880;DHT22;7010;48.200;16.332;2022-09-09T07:19:17;18.70;99.90
13880;DHT22;7010;48.200;16.332;2022-09-09T07:21:45;18.80;99.90
13880;DHT22;7010;48.200;16.332;2022-09-09T07:24:14;18.90;99.90
13880;DHT22;7010;48.200;16.332;2022-09-09T07:26:42;19.00;99.90
13880;DHT22;7010;48.200;16.332;2022-09-09T07:29:12;19.00;99.90
13880;DHT22;7010;48.200;16.332;2022-09-09T07:31:48;19.00;99.90
13880;DHT22;7010;48.200;16.332;2022-09-09T07:34:16;19.10;99.90
13880;DHT22;7010;48.200;16.332;2022-09-09T07:36:45;19.10;99.90
13880;DHT22;7010;48.200;16.332;2022-09-09T07:39:14;19.10;99.90
13880;DHT22;7010;48.200;16.332;2022-09-09T07:41:45;19.20;99.90
13880;DHT22;7010;48.200;16.332;2022-09-09T07:44:15;19.20;99.90
13880;DHT22;7010;48.200;16.332;2022-09-09T07:46:44;19.10;99.90
13880;DHT22;7010;48.200;16.332;2022-09-09T07:49:14;19.20;99.90
13880;DHT22;7010;48.200;16.332;2022-09-09T07:51:44;19.30;99.90
13880;DHT22;7010;48.200;16.332;2022-09-09T07:54:14;19.30;99.90
13880;DHT22;7010;48.200;16.332;2022-09-09T07:56:44;19.40;99.90
13880;DHT22;7010;48.200;16.332;2022-09-09T07:59:12;19.60;99.90
13880;DHT22;7010;48.200;16.332;2022-09-09T08:01:43;19.50;99.90
13880;DHT22;7010;48.200;16.332;2022-09-09T08:04:14;19.60;99.90
13880;DHT22;7010;48.200;16.332;2022-09-09T08:06:44;19.80;99.90
13880;DHT22;7010;48.200;16.332;2022-09-09T08:09:13;19.90;99.90
13880;DHT22;7010;48.200;16.332;2022-09-09T08:11:43;20.10;99.90
13880;DHT22;7010;48.200;16.332;2022-09-09T08:14:12;20.30;99.90
13880;DHT22;7010;48.200;16.332;2022-09-09T08:16:42;20.50;99.90
13880;DHT22;7010;48.200;16.332;2022-09-09T08:19:11;20.70;99.90
13880;DHT22;7010;48.200;16.332;2022-09-09T08:21:44;20.80;99.90
13880;DHT22;7010;48.200;16.332;2022-09-09T08:24:13;20.80;99.90
13880;DHT22;7010;48.200;16.332;2022-09-09T08:26:43;21.00;99.90
13880;DHT22;7010;48.200;16.332;2022-09-09T08:29:12;21.20;99.90
13880;DHT22;7010;48.200;16.332;2022-09-09T08:31:42;21.60;99.90
13880;DHT22;7010;48.200;16.332;2022-09-09T08:34:11;22.00;99.90
13880;DHT22;7010;48.200;16.332;2022-09-09T08:36:41;22.50;99.90
13880;DHT22;7010;48.200;16.332;2022-09-09T08:39:12;23.00;99.90
13880;DHT22;7010;48.200;16.332;2022-09-09T08:41:58;23.20;99.90
13880;DHT22;7010;48.200;16.332;2022-09-09T08:44:37;23.70;99.90
13880;DHT22;7010;48.200;16.332;2022-09-09T08:47:18;24.10;99.90
13880;DHT22;7010;48.200;16.332;2022-09-09T08:50:11;24.60;99.90
13880;DHT22;7010;48.200;16.332;2022-09-09T08:52:49;25.10;99.90
13880;DHT22;7010;48.200;16.332;2022-09-09T08:55:27;25.70;99.90
13880;DHT22;7010;48.200;16.332;2022-09-09T08:57:58;26.30;99.90
13880;DHT22;7010;48.200;16.332;2022-09-09T09:00:33;26.50;99.90
13880;DHT22;7010;48.200;16.332;2022-09-09T09:03:09;26.90;99.90
13880;DHT22;7010;48.200;16.332;2022-09-09T09:05:47;27.30;99.90
13880;DHT22;7010;48.200;16.332;2022-09-09T09:08:24;27.80;99.90
13880;DHT22;7010;48.200;16.332;2022-09-09T09:10:58;28.10;99.90
13880;DHT22;7010;48.200;16.332;2022-09-09T09:13:33;28.80;99.90
13880;DHT22;7010;48.200;16.332;2022-09-09T09:16:17;29.30;99.90
13880;DHT22;7010;48.200;16.332;2022-09-09T09:18:47;29.70;99.00
13880;DHT22;7010;48.200;16.332;2022-09-09T09:21:17;30.40;98.30
13880;DHT22;7010;48.200;16.332;2022-09-09T09:23:54;30.70;96.50
13880;DHT22;7010;48.200;16.332;2022-09-09T09:26:30;30.10;94.60
13880;DHT22;7010;48.200;16.332;2022-09-09T09:29:03;30.40;95.50
13880;DHT22;7010;48.200;16.332;2022-09-09T09:31:36;30.80;95.50
13880;DHT22;7010;48.200;16.332;2022-09-09T09:34:04;31.50;94.30
13880;DHT22;7010;48.200;16.332;2022-09-09T09:36:40;32.00;92.70
13880;DHT22;7010;48.200;16.332;2022-09-09T09:39:09;32.30;88.90
13880;DHT22;7010;48.200;16.332;2022-09-09T09:42:09;31.80;89.40
13880;DHT22;7010;48.200;16.332;2022-09-09T09:44:41;31.40;90.40
13880;DHT22;7010;48.200;16.332;2022-09-09T09:47:13;31.00;86.90
13880;DHT22;7010;48.200;16.332;2022-09-09T09:49:51;30.80;90.10
13880;DHT22;7010;48.200;16.332;2022-09-09T09:52:22;30.40;91.00
13880;DHT22;7010;48.200;16.332;2022-09-09T09:54:52;30.40;90.10
13880;DHT22;7010;48.200;16.332;2022-09-09T09:57:26;30.30;91.30
13880;DHT22;7010;48.200;16.332;2022-09-09T10:00:11;30.10;90.90
13880;DHT22;7010;48.200;16.332;2022-09-09T10:02:42;29.50;91.30
13880;DHT22;7010;48.200;16.332;2022-09-09T10:05:15;28.60;91.30
13880;DHT22;7010;48.200;16.332;2022-09-09T10:08:01;28.20;92.40
13880;DHT22;7010;48.200;16.332;2022-09-09T10:10:41;27.80;92.40
13880;DHT22;7010;48.200;16.332;2022-09-09T10:13:20;27.70;93.60
13880;DHT22;7010;48.200;16.332;2022-09-09T10:16:00;27.80;93.90
13880;DHT22;7010;48.200;16.332;2022-09-09T10:18:50;28.30;93.80
13880;DHT22;7010;48.200;16.332;2022-09-09T10:21:31;28.70;93.20
13880;DHT22;7010;48.200;16.332;2022-09-09T10:24:20;28.90;91.60
13880;DHT22;7010;48.200;16.332;2022-09-09T10:26:54;28.60;92.20
13880;DHT22;7010;48.200;16.332;2022-09-09T10:29:33;28.20;93.20
13880;DHT22;7010;48.200;16.332;2022-09-09T10:32:14;27.80;93.90
13880;DHT22;7010;48.200;16.332;2022-09-09T10:34:56;27.80;93.00
13880;DHT22;7010;48.200;16.332;2022-09-09T10:37:41;27.60;93.30
13880;DHT22;7010;48.200;16.332;2022-09-09T10:40:25;27.30;94.50
13880;DHT22;7010;48.200;16.332;2022-09-09T10:43:03;27.20;94.80
13880;DHT22;7010;48.200;16.332;2022-09-09T10:45:45;26.90;94.80
13880;DHT22;7010;48.200;16.332;2022-09-09T10:48:28;26.60;94.80
13880;DHT22;7010;48.200;16.332;2022-09-09T10:51:14;26.70;96.10
13880;DHT22;7010;48.200;16.332;2022-09-09T10:53:52;26.80;96.20
13880;DHT22;7010;48.200;16.332;2022-09-09T10:56:22;26.90;95.70
13880;DHT22;7010;48.200;16.332;2022-09-09T10:58:54;27.20;96.90
13880;DHT22;7010;48.200;16.332;2022-09-09T11:01:29;27.60;95.60
13880;DHT22;7010;48.200;16.332;2022-09-09T11:04:04;27.80;95.50
13880;DHT22;7010;48.200;16.332;2022-09-09T11:06:37;27.80;94.20
13880;DHT22;7010;48.200;16.332;2022-09-09T11:09:13;27.80;96.20
13880;DHT22;7010;48.200;16.332;2022-09-09T11:11:45;27.50;95.30
13880;DHT22;7010;48.200;16.332;2022-09-09T11:14:19;27.40;95.40
13880;DHT22;7010;48.200;16.332;2022-09-09T11:16:53;27.10;95.30
13880;DHT22;7010;48.200;16.332;2022-09-09T11:19:28;27.10;95.30
13880;DHT22;7010;48.200;16.332;2022-09-09T11:22:00;27.00;95.20
13880;DHT22;7010;48.200;16.332;2022-09-09T11:24:33;26.90;95.80
13880;DHT22;7010;48.200;16.332;2022-09-09T11:27:08;26.60;95.00
13880;DHT22;7010;48.200;16.332;2022-09-09T11:33:04;26.10;95.40
13880;DHT22;7010;48.200;16.332;2022-09-09T11:35:50;26.10;95.30
13880;DHT22;7010;48.200;16.332;2022-09-09T11:38:26;25.90;95.00
13880;DHT22;7010;48.200;16.332;2022-09-09T11:40:57;25.90;95.00
13880;DHT22;7010;48.200;16.332;2022-09-09T11:43:30;25.90;94.80
13880;DHT22;7010;48.200;16.332;2022-09-09T11:46:01;26.10;94.90
13880;DHT22;7010;48.200;16.332;2022-09-09T11:48:35;26.30;94.20
13880;DHT22;7010;48.200;16.332;2022-09-09T11:51:06;26.50;93.30
13880;DHT22;7010;48.200;16.332;2022-09-09T11:53:50;26.70;94.50
13880;DHT22;7010;48.200;16.332;2022-09-09T11:56:27;27.10;94.70
13880;DHT22;7010;48.200;16.332;2022-09-09T11:59:00;27.30;94.70
13880;DHT22;7010;48.200;16.332;2022-09-09T12:01:34;27.30;94.50
13880;DHT22;7010;48.200;16.332;2022-09-09T12:04:29;27.40;93.80
13880;DHT22;7010;48.200;16.332;2022-09-09T12:07:00;27.30;93.80
13880;DHT22;7010;48.200;16.332;2022-09-09T12:09:46;27.30;94.10
13880;DHT22;7010;48.200;16.332;2022-09-09T12:12:26;27.30;93.80
13880;DHT22;7010;48.200;16.332;2022-09-09T12:15:00;27.40;95.00
13880;DHT22;7010;48.200;16.332;2022-09-09T12:17:30;27.50;93.90
13880;DHT22;7010;48.200;16.332;2022-09-09T12:20:06;27.80;94.00
13880;DHT22;7010;48.200;16.332;2022-09-09T12:22:44;28.20;94.20
13880;DHT22;7010;48.200;16.332;2022-09-09T12:25:23;28.50;92.90
13880;DHT22;7010;48.200;16.332;2022-09-09T12:28:02;28.90;93.80
13880;DHT22;7010;48.200;16.332;2022-09-09T12:30:39;29.20;92.30
13880;DHT22;7010;48.200;16.332;2022-09-09T12:33:11;29.30;91.40
13880;DHT22;7010;48.200;16.332;2022-09-09T12:35:43;29.50;91.30
13880;DHT22;7010;48.200;16.332;2022-09-09T12:38:13;29.40;91.70
13880;DHT22;7010;48.200;16.332;2022-09-09T12:40:54;29.30;90.90
13880;DHT22;7010;48.200;16.332;2022-09-09T12:43:24;29.10;90.90
13880;DHT22;7010;48.200;16.332;2022-09-09T12:45:56;28.60;90.50
13880;DHT22;7010;48.200;16.332;2022-09-09T12:48:33;28.50;91.30
13880;DHT22;7010;48.200;16.332;2022-09-09T12:51:07;28.40;91.70
13880;DHT22;7010;48.200;16.332;2022-09-09T12:53:44;28.10;91.90
13880;DHT22;7010;48.200;16.332;2022-09-09T12:56:19;27.80;91.40
13880;DHT22;7010;48.200;16.332;2022-09-09T12:58:50;27.70;91.30
13880;DHT22;7010;48.200;16.332;2022-09-09T13:01:22;27.60;92.20
13880;DHT22;7010;48.200;16.332;2022-09-09T13:03:52;27.40;92.50
13880;DHT22;7010;48.200;16.332;2022-09-09T13:06:23;27.30;92.40
13880;DHT22;7010;48.200;16.332;2022-09-09T13:08:56;27.10;92.20
13880;DHT22;7010;48.200;16.332;2022-09-09T13:11:28;26.80;92.50
13880;DHT22;7010;48.200;16.332;2022-09-09T13:13:58;26.60;93.20
13880;DHT22;7010;48.200;16.332;2022-09-09T13:16:29;26.40;93.00
13880;DHT22;7010;48.200;16.332;2022-09-09T13:19:02;26.10;92.80
13880;DHT22;7010;48.200;16.332;2022-09-09T13:21:38;26.00;93.00
13880;DHT22;7010;48.200;16.332;2022-09-09T13:24:21;25.80;94.10
13880;DHT22;7010;48.200;16.332;2022-09-09T13:26:55;25.60;93.70
13880;DHT22;7010;48.200;16.332;2022-09-09T13:29:24;25.50;94.00
13880;DHT22;7010;48.200;16.332;2022-09-09T13:31:53;25.40;94.40
13880;DHT22;7010;48.200;16.332;2022-09-09T13:34:29;25.40;94.30
13880;DHT22;7010;48.200;16.332;2022-09-09T13:37:01;25.20;94.50
13880;DHT22;7010;48.200;16.332;2022-09-09T13:39:30;25.20;94.70
13880;DHT22;7010;48.200;16.332;2022-09-09T13:41:58;25.10;94.70
13880;DHT22;7010;48.200;16.332;2022-09-09T13:44:30;25.00;95.00
13880;DHT22;7010;48.200;16.332;2022-09-09T13:47:01;25.00;95.10
13880;DHT22;7010;48.200;16.332;2022-09-09T13:49:36;24.90;95.10
13880;DHT22;7010;48.200;16.332;2022-09-09T13:52:10;24.70;94.40
13880;DHT22;7010;48.200;16.332;2022-09-09T13:54:40;24.60;95.10
13880;DHT22;7010;48.200;16.332;2022-09-09T13:57:15;24.60;95.60
13880;DHT22;7010;48.200;16.332;2022-09-09T13:59:45;24.50;95.50
13880;DHT22;7010;48.200;16.332;2022-09-09T14:02:31;24.40;96.00
13880;DHT22;7010;48.200;16.332;2022-09-09T14:05:00;24.30;95.80
13880;DHT22;7010;48.200;16.332;2022-09-09T14:07:30;24.20;96.10
13880;DHT22;7010;48.200;16.332;2022-09-09T14:09:58;24.10;95.90
13880;DHT22;7010;48.200;16.332;2022-09-09T14:12:27;24.00;94.40
13880;DHT22;7010;48.200;16.332;2022-09-09T14:14:55;23.90;95.30
13880;DHT22;7010;48.200;16.332;2022-09-09T14:17:24;23.70;94.60
13880;DHT22;7010;48.200;16.332;2022-09-09T14:19:54;23.50;95.40
13880;DHT22;7010;48.200;16.332;2022-09-09T14:22:23;23.40;96.60
13880;DHT22;7010;48.200;16.332;2022-09-09T14:24:53;23.20;98.30
13880;DHT22;7010;48.200;16.332;2022-09-09T14:27:21;22.90;99.90
13880;DHT22;7010;48.200;16.332;2022-09-09T14:29:50;22.60;99.90
13880;DHT22;7010;48.200;16.332;2022-09-09T14:32:18;22.10;99.90
13880;DHT22;7010;48.200;16.332;2022-09-09T14:34:46;21.70;99.90
13880;DHT22;7010;48.200;16.332;2022-09-09T14:37:16;21.10;99.90
13880;DHT22;7010;48.200;16.332;2022-09-09T14:39:45;20.80;99.90
13880;DHT22;7010;48.200;16.332;2022-09-09T14:42:15;20.60;99.90
13880;DHT22;7010;48.200;16.332;2022-09-09T14:44:43;20.60;99.90
13880;DHT22;7010;48.200;16.332;2022-09-09T14:47:11;20.50;99.90
13880;DHT22;7010;48.200;16.332;2022-09-09T14:49:40;20.50;99.90
13880;DHT22;7010;48.200;16.332;2022-09-09T14:52:12;20.60;99.90
13880;DHT22;7010;48.200;16.332;2022-09-09T14:54:41;20.70;99.90
13880;DHT22;7010;48.200;16.332;2022-09-09T14:57:09;20.80;99.90
13880;DHT22;7010;48.200;16.332;2022-09-09T14:59:38;20.80;99.90
13880;DHT22;7010;48.200;16.332;2022-09-09T15:02:08;20.90;99.90
13880;DHT22;7010;48.200;16.332;2022-09-09T15:04:36;20.90;99.90
13880;DHT22;7010;48.200;16.332;2022-09-09T15:07:05;21.00;99.90
13880;DHT22;7010;48.200;16.332;2022-09-09T15:09:33;21.00;99.90
13880;DHT22;7010;48.200;16.332;2022-09-09T15:12:01;21.10;99.90
13880;DHT22;7010;48.200;16.332;2022-09-09T15:14:31;21.10;99.90
13880;DHT22;7010;48.200;16.332;2022-09-09T15:17:01;21.10;99.90
13880;DHT22;7010;48.200;16.332;2022-09-09T15:19:29;21.10;99.90
13880;DHT22;7010;48.200;16.332;2022-09-09T15:21:57;21.10;99.90
13880;DHT22;7010;48.200;16.332;2022-09-09T15:24:26;21.10;99.90
13880;DHT22;7010;48.200;16.332;2022-09-09T15:26:54;21.00;99.90
13880;DHT22;7010;48.200;16.332;2022-09-09T15:29:23;21.00;99.90
13880;DHT22;7010;48.200;16.332;2022-09-09T15:31:51;21.00;99.90
13880;DHT22;7010;48.200;16.332;2022-09-09T15:34:22;21.00;99.90
13880;DHT22;7010;48.200;16.332;2022-09-09T15:36:50;20.90;99.90
13880;DHT22;7010;48.200;16.332;2022-09-09T15:39:19;20.80;99.90
13880;DHT22;7010;48.200;16.332;2022-09-09T15:41:48;20.80;99.90
13880;DHT22;7010;48.200;16.332;2022-09-09T15:44:18;20.70;99.90
13880;DHT22;7010;48.200;16.332;2022-09-09T15:46:49;20.70;99.90
13880;DHT22;7010;48.200;16.332;2022-09-09T15:49:19;20.60;99.90
13880;DHT22;7010;48.200;16.332;2022-09-09T15:51:53;20.60;99.90
13880;DHT22;7010;48.200;16.332;2022-09-09T15:54:23;20.60;99.90
13880;DHT22;7010;48.200;16.332;2022-09-09T15:56:53;20.60;99.90
13880;DHT22;7010;48.200;16.332;2022-09-09T15:59:23;20.50;99.90
13880;DHT22;7010;48.200;16.332;2022-09-09T16:01:51;20.40;99.90
13880;DHT22;7010;48.200;16.332;2022-09-09T16:04:21;20.40;99.90